Charter Quote
Worldwide +1-877-727-2538 Call
Select Language Lang
SAFETY RELIABILITY EXPERIENCE

Private Jet Charter Services - Korla Airport (ZWKL)

Paramount Business Jets offers private jet charter flights and luxury airliner charters to and from Korla Airport.

AIRPORT INFORMATION
ICAOZWKL
LOCATIONKorla, China
FACILITY TYPEAIRPORT

At Paramount Business Jets you can hire chartered private jets to and from Korla Airport with as little as 4 hours of notice. All flights booked via Paramount Business Jets are operated by certified direct air carriers that meet and exceed the FAA part 135 and 121 protocol or a foreign equivalent safety authority. Furthermore, Paramount Business Jets subscribes to ARGUS for their third party safety checks of operators, aircraft, and crews prior each and every flight to and from Korla Airport and worldwide.

  • Quote a trip using Korla Airport or call us 24/7 - 365 days a year at +1-877-727-2538.
Questions? Call +1-877-727-2538

METAR Weather Data at Korla Airport, ZWKL

STATIONZWKL
OBSERVEDThu May 14, 02:00 UTC
NOWThu Nov 14, 16:34 UTC
AGE39494:34 hr ago
WINDESE at 11 mph
VISIBILITY16 miles
CLOUDSpartly cloudy
TEMP73°F (23°C)
DEWPT34°F (1°C)
HUMIDITY23%
BAROMETER1015 hPa (29.97 in Hg)
METARZWKL 140200Z 11005MPS 9999 FEW040 23/01 Q1015 NOSIG

Call us on +1-877-727-2538 (24 Hours), Check our Pricing, or Get a Quick Quote.

Find Airports Near any Location

Processing
...